Time;durP1;ratioP1;P1;durP2;ratioP2;P2;SDS_P1;SDS_P2;PMS_P1;PMS_P2;Temp;Humidity;BMP_temperature;BMP_pressure;BME280_temperature;BME280_humidity;BME280_pressure;Samples;Min_cycle;Max_cycle;Signal;HPM_P1;HPM_P2
2022/08/09 00:01:26;;;;;;;7.57;3.95;;;;;;;20.51;53.99;93373.00;2070777;69;20245;-72
2022/08/09 00:03:53;;;;;;;7.25;4.13;;;;;;;20.61;53.88;93370.50;2070837;69;20152;-71
2022/08/09 00:06:18;;;;;;;6.70;4.70;;;;;;;20.20;54.84;93362.59;2070658;69;20156;-72
2022/08/09 00:08:47;;;;;;;6.68;4.50;;;;;;;20.28;54.85;93374.31;2070675;69;20567;-71
2022/08/09 00:11:15;;;;;;;6.97;4.20;;;;;;;20.29;54.90;93381.50;2070752;69;20148;-71
2022/08/09 00:13:41;;;;;;;8.73;4.75;;;;;;;20.39;53.51;93375.41;2070828;69;20785;-72
2022/08/09 00:16:09;;;;;;;8.88;4.60;;;;;;;20.36;54.44;93368.16;2066911;69;20160;-73
2022/08/09 00:18:34;;;;;;;5.97;4.18;;;;;;;20.50;53.54;93375.13;2067224;69;20175;-72
2022/08/09 00:21:04;;;;;;;7.90;4.15;;;;;;;20.23;55.37;93378.44;2067433;69;20156;-72
2022/08/09 00:23:30;;;;;;;6.93;4.10;;;;;;;19.82;56.85;93370.50;2067438;69;20202;-72
2022/08/09 00:25:56;;;;;;;5.95;4.13;;;;;;;20.16;54.90;93368.94;2067069;69;20208;-72
2022/08/09 00:28:25;;;;;;;5.88;4.72;;;;;;;19.19;58.35;93366.69;2067267;69;20144;-73
2022/08/09 00:30:52;;;;;;;5.38;4.00;;;;;;;19.85;56.29;93369.94;2067629;69;20483;-72
2022/08/09 00:33:18;;;;;;;7.68;3.90;;;;;;;19.93;55.88;93364.53;2067218;69;20164;-72
2022/08/09 00:35:44;;;;;;;8.40;4.63;;;;;;;19.62;57.34;93354.09;2066856;69;20156;-72
2022/08/09 00:38:11;;;;;;;8.77;4.60;;;;;;;19.47;56.86;93366.31;2067560;69;20149;-72
2022/08/09 00:40:38;;;;;;;5.47;3.90;;;;;;;19.73;55.88;93358.78;2067263;69;20187;-72
2022/08/09 00:43:04;;;;;;;6.93;4.65;;;;;;;19.69;56.70;93363.59;2067144;69;20229;-72
2022/08/09 00:45:30;;;;;;;7.05;4.65;;;;;;;19.77;56.03;93358.94;2067460;69;20137;-72
2022/08/09 00:47:55;;;;;;;7.30;4.68;;;;;;;19.64;56.34;93359.13;2067197;69;20608;-72
2022/08/09 00:50:22;;;;;;;7.07;4.43;;;;;;;19.70;55.59;93362.22;2067421;69;20152;-72
2022/08/09 00:52:48;;;;;;;7.25;4.50;;;;;;;19.73;55.66;93353.06;2067465;69;20247;-73
2022/08/09 00:55:15;;;;;;;7.68;4.22;;;;;;;19.71;56.11;93366.56;2067216;69;20240;-72
2022/08/09 00:57:40;;;;;;;7.32;3.92;;;;;;;19.74;56.26;93371.66;2067607;69;20514;-72
2022/08/09 01:00:08;;;;;;;7.22;5.25;;;;;;;19.43;57.22;93366.91;2067380;69;20198;-72
2022/08/09 01:02:36;;;;;;;5.90;4.07;;;;;;;19.65;55.71;93377.72;2067181;69;20608;-72
2022/08/09 01:05:11;;;;;;;7.50;4.38;;;;;;;19.60;57.12;93376.84;2067662;69;20568;-72
2022/08/09 01:08:07;;;;;;;8.20;4.85;;;;;;;19.38;57.59;93365.28;2067460;69;20189;-73
2022/08/09 01:10:50;;;;;;;5.90;4.28;;;;;;;19.48;55.67;93371.41;2061012;69;20183;-72
2022/08/09 01:13:33;;;;;;;10.43;4.13;;;;;;;19.57;56.18;93374.56;2063748;69;20182;-72
2022/08/09 01:16:02;;;;;;;5.88;4.40;;;;;;;19.35;57.71;93374.44;2064960;69;20615;-72
2022/08/09 01:18:30;;;;;;;9.80;5.30;;;;;;;18.74;58.97;93370.63;2069003;69;20231;-72
2022/08/09 01:21:27;;;;;;;7.97;5.05;;;;;;;18.91;59.39;93368.41;2069130;69;20164;-72
2022/08/09 01:24:09;;;;;;;8.05;4.35;;;;;;;19.23;56.76;93368.97;2068357;69;20172;-72
2022/08/09 01:27:01;;;;;;;8.60;4.55;;;;;;;19.24;57.29;93370.44;2068567;69;20508;-72
2022/08/09 01:29:33;;;;;;;6.25;4.20;;;;;;;19.05;58.34;93372.56;2068643;69;21105;-72
2022/08/09 01:32:03;;;;;;;5.93;4.05;;;;;;;19.15;57.48;93369.41;2069295;69;20563;-72
2022/08/09 01:34:31;;;;;;;6.22;4.88;;;;;;;19.00;58.40;93375.91;2068204;69;20175;-72
2022/08/09 01:37:00;;;;;;;7.13;4.50;;;;;;;19.09;57.65;93371.25;2067376;69;20176;-73
2022/08/09 01:39:29;;;;;;;6.85;4.63;;;;;;;18.92;58.30;93372.72;2067756;69;20153;-72
2022/08/09 01:41:58;;;;;;;8.15;4.47;;;;;;;18.82;58.51;93383.72;2068051;69;20212;-73
2022/08/09 01:44:29;;;;;;;6.50;4.43;;;;;;;19.02;57.25;93378.84;2067840;69;20153;-73
2022/08/09 01:46:57;;;;;;;9.18;4.65;;;;;;;18.95;57.76;93377.13;2067687;69;20156;-73
2022/08/09 01:49:24;;;;;;;8.48;4.65;;;;;;;18.89;57.39;93377.63;2067898;69;20530;-72
2022/08/09 01:51:54;;;;;;;10.65;5.05;;;;;;;19.00;57.68;93370.94;2067687;69;20136;-73
2022/08/09 01:54:42;;;;;;;8.85;4.97;;;;;;;18.58;59.73;93372.03;2068227;69;20159;-72
2022/08/09 01:57:12;;;;;;;6.25;4.70;;;;;;;18.52;59.07;93376.09;2067863;69;20882;-72
2022/08/09 01:59:41;;;;;;;7.25;4.60;;;;;;;18.77;58.30;93386.41;2067526;69;20155;-73
2022/08/09 02:02:10;;;;;;;5.63;4.65;;;;;;;18.74;58.64;93381.28;2067875;69;20661;-72
2022/08/09 02:04:38;;;;;;;10.27;5.40;;;;;;;18.83;57.50;93388.78;2067616;69;20152;-73
2022/08/09 02:07:08;;;;;;;8.32;5.10;;;;;;;18.79;58.11;93382.94;2068193;69;20232;-72
2022/08/09 02:09:38;;;;;;;6.80;4.93;;;;;;;18.57;58.92;93382.69;2067913;69;20657;-72
2022/08/09 02:12:10;;;;;;;7.00;5.50;;;;;;;18.64;59.10;93380.81;2067943;69;20264;-72
2022/08/09 02:14:39;;;;;;;6.75;4.68;;;;;;;18.56;59.77;93380.50;2068817;69;20207;-72
2022/08/09 02:17:08;;;;;;;6.13;4.90;;;;;;;18.46;59.16;93377.94;2070972;69;20164;-72
2022/08/09 02:19:33;;;;;;;8.98;5.55;;;;;;;18.60;59.15;93384.25;2071202;69;20148;-72
2022/08/09 02:22:04;;;;;;;7.53;4.70;;;;;;;18.63;58.30;93379.34;2071321;69;20452;-72
2022/08/09 02:24:35;;;;;;;10.70;5.43;;;;;;;18.67;58.09;93376.69;2067497;69;20916;-72
2022/08/09 02:27:04;;;;;;;8.35;4.80;;;;;;;18.48;59.60;93370.22;2067810;69;20338;-72
2022/08/09 02:29:37;;;;;;;8.10;4.53;;;;;;;18.71;57.30;93374.03;2071297;69;20148;-72
2022/08/09 02:32:08;;;;;;;6.97;4.50;;;;;;;18.53;59.17;93371.84;2071007;69;20173;-73
2022/08/09 02:34:36;;;;;;;7.53;5.15;;;;;;;18.55;58.49;93371.19;2071259;69;20137;-72
2022/08/09 02:37:08;;;;;;;7.20;4.68;;;;;;;18.41;59.73;93379.88;2071363;69;20153;-72
2022/08/09 02:39:40;;;;;;;8.30;4.97;;;;;;;18.46;58.86;93380.78;2071025;69;20160;-72
2022/08/09 02:42:15;;;;;;;9.23;4.97;;;;;;;18.36;59.21;93377.50;2067727;69;20476;-72
2022/08/09 02:44:45;;;;;;;7.13;5.07;;;;;;;18.13;60.54;93385.09;2071055;69;20163;-73
2022/08/09 02:47:14;;;;;;;7.00;4.90;;;;;;;18.20;60.40;93386.09;2071325;69;20609;-72
2022/08/09 02:49:47;;;;;;;7.55;5.20;;;;;;;18.24;60.06;93383.44;2067957;69;20571;-73
2022/08/09 02:52:16;;;;;;;6.03;4.60;;;;;;;18.29;59.04;93377.25;2071552;69;20231;-73
2022/08/09 02:54:44;;;;;;;8.45;5.28;;;;;;;18.21;59.56;93379.75;2071431;69;20621;-73
2022/08/09 02:57:10;;;;;;;8.20;4.90;;;;;;;18.27;59.15;93379.28;2070968;69;20164;-73
2022/08/09 02:59:38;;;;;;;9.57;5.13;;;;;;;18.25;59.51;93387.75;2071591;69;20150;-73
2022/08/09 03:02:06;;;;;;;9.82;4.38;;;;;;;18.07;61.38;93387.69;2071260;69;20140;-73
2022/08/09 03:04:35;;;;;;;5.53;4.65;;;;;;;18.13;59.55;93390.78;2071366;69;20128;-73
2022/08/09 03:07:02;;;;;;;6.32;4.95;;;;;;;18.10;60.02;93397.03;2071362;69;20535;-73
2022/08/09 03:09:29;;;;;;;7.38;5.07;;;;;;;17.95;60.28;93387.13;2071533;69;20211;-73
2022/08/09 03:11:56;;;;;;;9.60;5.53;;;;;;;17.97;60.15;93387.25;2071454;69;20180;-73
2022/08/09 03:14:24;;;;;;;6.78;4.70;;;;;;;18.04;59.13;93389.69;2071428;69;20159;-73
2022/08/09 03:16:52;;;;;;;6.18;4.97;;;;;;;17.92;59.90;93392.03;2071160;69;20595;-73
2022/08/09 03:19:19;;;;;;;8.27;5.30;;;;;;;17.80;60.69;93393.59;2071403;69;20215;-73
2022/08/09 03:21:49;;;;;;;9.82;5.53;;;;;;;17.87;59.71;93393.22;2067700;69;20148;-73
2022/08/09 03:24:16;;;;;;;7.75;5.32;;;;;;;17.81;60.71;93384.38;2067934;69;20140;-73
2022/08/09 03:26:46;;;;;;;8.20;5.05;;;;;;;17.78;60.45;93386.44;2071278;69;20618;-73
2022/08/09 03:29:13;;;;;;;8.63;5.40;;;;;;;17.65;60.71;93381.53;2068017;69;20611;-73
2022/08/09 03:31:40;;;;;;;7.65;5.00;;;;;;;17.87;59.71;93387.53;2071131;69;20152;-72
2022/08/09 03:34:07;;;;;;;7.13;5.22;;;;;;;17.89;60.09;93384.75;2071409;69;20206;-73
2022/08/09 03:36:35;;;;;;;8.20;4.97;;;;;;;17.79;59.88;93392.84;2067740;69;20635;-73
2022/08/09 03:39:01;;;;;;;5.90;4.95;;;;;;;17.68;61.90;93388.78;2071464;69;20156;-73
2022/08/09 03:41:27;;;;;;;6.57;5.40;;;;;;;17.74;60.60;93380.56;2068028;69;20156;-72
2022/08/09 03:43:53;;;;;;;8.27;4.75;;;;;;;17.64;61.11;93387.84;2071265;69;20154;-73
2022/08/09 03:46:18;;;;;;;8.65;5.47;;;;;;;17.73;60.68;93384.00;2071163;69;20227;-73
2022/08/09 03:48:49;;;;;;;9.25;4.93;;;;;;;17.61;61.02;93383.47;2071309;69;20163;-73
2022/08/09 03:51:15;;;;;;;9.38;5.13;;;;;;;17.70;60.33;93385.28;2067920;69;20156;-73
2022/08/09 03:53:42;;;;;;;7.35;4.97;;;;;;;17.75;60.14;93389.81;2071582;69;20213;-71
2022/08/09 03:56:08;;;;;;;9.15;5.57;;;;;;;17.64;60.82;93396.38;2074212;69;20213;-72
2022/08/09 03:58:35;;;;;;;7.40;5.18;;;;;;;17.63;60.59;93394.94;2074531;69;20626;-72
2022/08/09 04:01:02;;;;;;;6.47;5.15;;;;;;;17.70;60.43;93396.69;2072069;69;20244;-72
2022/08/09 04:03:29;;;;;;;8.48;5.55;;;;;;;17.75;59.84;93399.09;2071231;69;20531;-72
2022/08/09 04:05:55;;;;;;;9.40;5.47;;;;;;;17.73;60.01;93401.88;2071217;69;20152;-72
2022/08/09 04:08:22;;;;;;;6.70;4.97;;;;;;;17.59;60.25;93401.16;2067970;69;20144;-72
2022/08/09 04:10:47;;;;;;;9.18;5.38;;;;;;;17.62;60.23;93404.84;2067927;69;20164;-72
2022/08/09 04:13:13;;;;;;;11.15;5.82;;;;;;;17.54;60.77;93400.25;2071024;69;20147;-72
2022/08/09 04:15:39;;;;;;;7.70;5.25;;;;;;;17.37;60.32;93400.16;2070559;69;20167;-72
2022/08/09 04:18:05;;;;;;;8.25;5.90;;;;;;;17.30;60.21;93401.97;2070246;69;20610;-72
2022/08/09 04:20:32;;;;;;;10.20;6.18;;;;;;;17.37;60.73;93400.16;2071529;69;20211;-72
2022/08/09 04:22:58;;;;;;;8.57;5.63;;;;;;;17.38;60.73;93405.19;2074125;69;20234;-72
2022/08/09 04:25:24;;;;;;;6.80;5.55;;;;;;;17.39;60.42;93406.66;2073999;69;20167;-72
2022/08/09 04:27:49;;;;;;;7.45;5.80;;;;;;;17.23;61.59;93409.50;2074717;69;20247;-72
2022/08/09 04:30:21;;;;;;;8.52;5.32;;;;;;;17.32;61.12;93407.00;2074163;69;20152;-72
2022/08/09 04:32:48;;;;;;;11.18;5.63;;;;;;;17.22;62.15;93418.66;2071162;69;20131;-72
2022/08/09 04:35:13;;;;;;;7.53;5.22;;;;;;;17.05;63.33;93410.72;2071287;69;20556;-72
2022/08/09 04:37:40;;;;;;;6.43;5.57;;;;;;;17.01;62.80;93414.13;2073424;69;20173;-72
2022/08/09 04:40:07;;;;;;;11.55;7.43;;;;;;;16.98;63.48;93412.53;2072790;69;20140;-72
2022/08/09 04:42:34;;;;;;;33.33;13.30;;;;;;;17.10;62.96;93413.13;2071311;69;20156;-71
2022/08/09 04:45:00;;;;;;;10.10;5.68;;;;;;;17.28;61.18;93411.16;2071128;69;20546;-72
2022/08/09 04:47:27;;;;;;;12.90;7.90;;;;;;;17.19;62.39;93411.41;2067538;69;20548;-72
2022/08/09 04:49:54;;;;;;;67.47;21.67;;;;;;;17.24;61.13;93410.22;2069470;69;20273;-72
2022/08/09 04:52:27;;;;;;;18.27;9.10;;;;;;;17.20;62.08;93410.75;2072660;69;20187;-71
2022/08/09 04:54:58;;;;;;;40.20;14.75;;;;;;;17.22;62.97;93415.81;2074572;69;20180;-71
2022/08/09 04:57:26;;;;;;;25.88;10.75;;;;;;;17.24;62.00;93410.97;2074536;69;20235;-72
2022/08/09 04:59:54;;;;;;;35.53;12.07;;;;;;;17.32;60.73;93427.69;2074465;69;20147;-72
2022/08/09 05:02:20;;;;;;;72.80;21.70;;;;;;;17.25;60.80;93423.06;2074268;69;20159;-72
2022/08/09 05:04:45;;;;;;;34.10;11.80;;;;;;;17.24;61.57;93419.50;2074474;69;20152;-72
2022/08/09 05:07:11;;;;;;;27.20;10.20;;;;;;;17.10;62.87;93421.66;2071459;69;20167;-72
2022/08/09 05:09:37;;;;;;;51.60;16.73;;;;;;;17.09;62.39;93420.19;2068829;69;20148;-72
2022/08/09 05:12:03;;;;;;;92.97;25.25;;;;;;;17.12;63.36;93418.91;2071724;69;20164;-71
2022/08/09 05:14:30;;;;;;;11.80;7.05;;;;;;;16.62;65.18;93432.06;2073405;69;20201;-72
2022/08/09 05:16:58;;;;;;;13.80;6.55;;;;;;;17.17;61.05;93425.53;2074250;69;20965;-71
2022/08/09 05:19:28;;;;;;;36.20;12.32;;;;;;;16.97;63.11;93425.28;2074865;69;20143;-72
2022/08/09 05:21:54;;;;;;;13.13;7.20;;;;;;;16.97;63.01;93422.44;2071868;69;20148;-72
2022/08/09 05:24:21;;;;;;;26.63;10.52;;;;;;;17.12;62.05;93421.00;2071670;69;20223;-73
2022/08/09 05:26:47;;;;;;;36.92;12.63;;;;;;;17.12;62.07;93427.44;2070823;69;20170;-71
2022/08/09 05:29:20;;;;;;;9.52;6.45;;;;;;;17.04;63.10;93427.03;2067464;69;20145;-72
2022/08/09 05:31:47;;;;;;;9.07;5.95;;;;;;;17.12;62.49;93427.44;2070768;69;20752;-72
2022/08/09 05:34:14;;;;;;;9.05;6.00;;;;;;;16.96;64.08;93432.34;2071333;69;20472;-72
2022/08/09 05:36:41;;;;;;;12.70;6.68;;;;;;;17.09;63.21;93437.28;2067797;69;20156;-72
2022/08/09 05:39:07;;;;;;;8.27;5.88;;;;;;;16.91;64.74;93431.41;2070957;69;20148;-72
2022/08/09 05:41:32;;;;;;;8.40;5.53;;;;;;;17.02;63.08;93435.47;2071183;69;20566;-72
2022/08/09 05:43:58;;;;;;;12.98;6.35;;;;;;;17.08;63.05;93440.72;2071503;69;20267;-72
2022/08/09 05:46:24;;;;;;;13.68;8.02;;;;;;;16.92;64.20;93430.03;2071564;69;20180;-72
2022/08/09 05:48:49;;;;;;;10.88;7.05;;;;;;;17.05;62.31;93439.19;2072460;69;20327;-72
2022/08/09 05:51:15;;;;;;;9.20;6.43;;;;;;;17.24;62.79;93439.41;2073071;69;20250;-72
2022/08/09 05:53:41;;;;;;;16.02;9.45;;;;;;;17.21;63.09;93442.78;2072247;69;20239;-72
2022/08/09 05:56:07;;;;;;;9.35;6.68;;;;;;;17.12;63.46;93441.66;2072366;69;20147;-72
2022/08/09 05:58:32;;;;;;;16.13;8.30;;;;;;;17.36;61.38;93442.09;2072710;69;20611;-72
2022/08/09 06:01:02;;;;;;;10.32;6.72;;;;;;;17.15;64.45;93442.50;2071462;69;20168;-72
2022/08/09 06:03:28;;;;;;;11.13;5.93;;;;;;;17.08;64.58;93440.72;2071623;69;20727;-71
2022/08/09 06:05:53;;;;;;;10.18;6.68;;;;;;;17.09;64.38;93439.34;2068121;69;20144;-72
2022/08/09 06:08:19;;;;;;;9.73;6.55;;;;;;;17.11;64.18;93443.03;2068345;69;20247;-72
2022/08/09 06:10:44;;;;;;;7.47;5.60;;;;;;;17.19;63.36;93437.75;2070750;69;20202;-72
2022/08/09 06:13:12;;;;;;;7.65;5.47;;;;;;;17.29;63.32;93434.66;2073621;69;20156;-71
2022/08/09 06:15:38;;;;;;;19.23;8.73;;;;;;;17.28;64.13;93430.34;2072183;69;20222;-72
2022/08/09 06:18:05;;;;;;;9.90;6.22;;;;;;;17.27;62.50;93431.69;2068912;69;20567;-72
2022/08/09 06:20:31;;;;;;;21.52;9.50;;;;;;;17.33;64.07;93432.00;2072278;69;20542;-72
2022/08/09 06:22:57;;;;;;;29.23;12.60;;;;;;;17.45;61.40;93435.41;2072967;69;20151;-72
2022/08/09 06:25:23;;;;;;;10.65;6.95;;;;;;;17.43;63.55;93440.28;2072537;69;20226;-71
2022/08/09 06:27:50;;;;;;;11.38;6.80;;;;;;;17.48;63.56;93424.84;2068691;69;20626;-73
2022/08/09 06:30:16;;;;;;;10.18;6.70;;;;;;;17.38;63.68;93427.97;2072654;69;20499;-71
2022/08/09 06:32:42;;;;;;;14.18;7.05;;;;;;;17.43;64.37;93435.31;2072996;69;20183;-72
2022/08/09 06:35:08;;;;;;;9.50;6.43;;;;;;;17.63;61.32;93429.09;2074758;69;20199;-72
2022/08/09 06:37:34;;;;;;;17.88;8.68;;;;;;;17.66;60.82;93431.41;2074571;69;20150;-73
2022/08/09 06:40:00;;;;;;;26.15;10.38;;;;;;;17.66;61.83;93424.97;2074086;69;20472;-71
2022/08/09 06:42:26;;;;;;;9.38;6.65;;;;;;;17.59;63.96;93426.78;2072647;69;20176;-72
2022/08/09 06:44:51;;;;;;;9.32;5.50;;;;;;;17.72;61.93;93428.81;2071762;69;20144;-72
2022/08/09 06:47:17;;;;;;;11.50;6.18;;;;;;;17.87;61.60;93418.09;2072195;69;20213;-72
2022/08/09 06:49:42;;;;;;;7.25;5.82;;;;;;;17.92;63.23;93420.50;2072957;69;20152;-71
2022/08/09 06:52:09;;;;;;;8.38;6.25;;;;;;;18.03;64.28;93421.69;2069625;69;20229;-70
2022/08/09 06:54:34;;;;;;;9.05;5.30;;;;;;;18.20;61.36;93420.31;2072651;69;20148;-73
2022/08/09 06:57:00;;;;;;;8.90;6.35;;;;;;;18.19;64.80;93421.66;2068038;69;20159;-73
2022/08/09 06:59:26;;;;;;;10.43;5.90;;;;;;;18.43;61.32;93417.03;2071408;69;20128;-72
2022/08/09 07:01:52;;;;;;;99.97;28.90;;;;;;;18.63;61.41;93413.56;2067514;69;20148;-72
2022/08/09 07:04:17;;;;;;;449.02;130.65;;;;;;;18.72;61.55;93421.13;2071398;69;20170;-72
2022/08/09 07:06:43;;;;;;;376.08;105.13;;;;;;;18.83;61.64;93413.72;2071313;69;20136;-72
2022/08/09 07:09:09;;;;;;;207.13;56.08;;;;;;;18.94;61.85;93418.47;2066855;69;20156;-73
2022/08/09 07:11:34;;;;;;;165.30;45.33;;;;;;;19.05;63.80;93420.34;2072845;69;20213;-72
2022/08/09 07:14:00;;;;;;;73.47;24.33;;;;;;;19.17;63.52;93412.28;2073030;69;20284;-71
2022/08/09 07:16:26;;;;;;;190.20;46.85;;;;;;;19.32;64.21;93409.97;2071830;69;20247;-72
2022/08/09 07:18:51;;;;;;;25.63;9.95;;;;;;;19.48;62.67;93416.34;2071238;69;20629;-74
2022/08/09 07:21:17;;;;;;;168.43;47.58;;;;;;;19.69;62.66;93415.75;2073158;69;20180;-72
2022/08/09 07:23:43;;;;;;;10.85;6.72;;;;;;;19.86;60.57;93413.53;2074886;69;20144;-73
2022/08/09 07:26:08;;;;;;;9.35;6.05;;;;;;;20.13;60.56;93415.97;2074673;69;20508;-72
2022/08/09 07:28:34;;;;;;;12.10;6.65;;;;;;;20.38;59.02;93411.84;2074710;69;20155;-73
2022/08/09 07:31:00;;;;;;;6.07;5.32;;;;;;;20.90;59.00;93408.66;2073447;69;20238;-72
2022/08/09 07:33:26;;;;;;;9.60;5.50;;;;;;;21.64;54.57;93408.91;2072590;69;20181;-73
2022/08/09 07:35:52;;;;;;;9.60;5.63;;;;;;;21.63;55.77;93416.06;2073095;69;20160;-73
2022/08/09 07:38:17;;;;;;;7.90;5.95;;;;;;;21.82;55.96;93404.47;2073171;69;20229;-75
2022/08/09 07:40:43;;;;;;;6.15;4.60;;;;;;;22.00;54.68;93406.44;2073238;69;20671;-74
2022/08/09 07:43:09;;;;;;;5.13;4.63;;;;;;;21.96;52.76;93409.91;2073975;69;20148;-74
2022/08/09 07:45:35;;;;;;;7.78;5.40;;;;;;;22.78;51.79;93403.59;2074345;69;20166;-74
2022/08/09 07:48:01;;;;;;;5.47;4.60;;;;;;;22.09;52.44;93416.72;2074342;69;20243;-73
2022/08/09 07:50:27;;;;;;;6.00;4.95;;;;;;;22.68;50.99;93411.91;2074084;69;20240;-75
2022/08/09 07:52:54;;;;;;;6.07;4.63;;;;;;;22.90;50.73;93408.94;2070307;69;20259;-75
2022/08/09 07:55:20;;;;;;;5.30;4.68;;;;;;;23.55;48.69;93413.44;2073825;69;20155;-75
2022/08/09 07:57:47;;;;;;;5.30;4.35;;;;;;;24.20;48.93;93417.81;2074153;69;20136;-75
2022/08/09 08:00:16;;;;;;;6.03;4.57;;;;;;;24.08;48.64;93411.78;2074214;69;20136;-75
2022/08/09 08:02:42;;;;;;;10.80;4.82;;;;;;;24.28;48.23;93406.47;2070725;69;20140;-75
2022/08/09 08:05:09;;;;;;;6.95;5.20;;;;;;;24.21;46.81;93407.75;2074323;69;20144;-75
2022/08/09 08:07:34;;;;;;;6.53;4.43;;;;;;;24.09;44.05;93410.34;2074443;69;20154;-75
2022/08/09 08:10:04;;;;;;;7.95;4.20;;;;;;;24.90;44.72;93404.81;2074731;69;20147;-75
2022/08/09 08:12:29;;;;;;;7.43;4.22;;;;;;;25.00;44.10;93404.97;2074733;69;20196;-75
2022/08/09 08:14:56;;;;;;;7.57;3.90;;;;;;;24.89;44.31;93403.34;2074636;69;20603;-75
2022/08/09 08:17:22;;;;;;;4.70;4.25;;;;;;;23.78;45.25;93403.94;2071121;69;20140;-75
2022/08/09 08:19:48;;;;;;;5.95;4.55;;;;;;;24.77;45.37;93409.59;2074750;69;20182;-75
2022/08/09 08:22:14;;;;;;;5.88;3.80;;;;;;;24.43;44.50;93398.88;2074779;69;20152;-75
2022/08/09 08:24:40;;;;;;;4.70;3.90;;;;;;;25.06;43.67;93402.97;2074689;69;20235;-75
2022/08/09 08:27:06;;;;;;;4.68;4.07;;;;;;;25.20;44.65;93399.63;2074517;69;20140;-75
2022/08/09 08:29:32;;;;;;;4.85;3.83;;;;;;;25.84;43.24;93401.34;2074546;69;20158;-75
2022/08/09 08:31:59;;;;;;;5.00;3.72;;;;;;;26.28;43.75;93401.25;2074496;69;20187;-75
2022/08/09 08:34:24;;;;;;;5.68;3.85;;;;;;;26.64;42.72;93399.56;2074718;69;20285;-75
2022/08/09 08:36:50;;;;;;;5.38;3.63;;;;;;;27.16;44.09;93390.75;2071117;69;20589;-75
2022/08/09 08:39:17;;;;;;;3.63;3.33;;;;;;;27.32;43.24;93393.06;2074636;69;20143;-75
2022/08/09 08:41:45;;;;;;;3.88;3.33;;;;;;;27.31;41.63;93385.84;2074549;69;20167;-75
2022/08/09 08:44:13;;;;;;;3.80;3.30;;;;;;;27.53;38.83;93391.78;2074594;69;20192;-75
2022/08/09 08:46:40;;;;;;;4.53;3.55;;;;;;;27.17;37.74;93386.44;2074403;69;20160;-75
2022/08/09 08:49:07;;;;;;;6.38;3.45;;;;;;;28.39;38.08;93391.69;2074622;69;20175;-75
2022/08/09 08:51:35;;;;;;;4.82;3.40;;;;;;;28.39;38.04;93385.88;2074536;69;20560;-76
2022/08/09 08:54:07;;;;;;;4.30;3.55;;;;;;;28.21;38.82;93381.44;2074504;69;20144;-75
2022/08/09 08:56:38;;;;;;;3.97;3.67;;;;;;;27.48;39.27;93387.41;2071145;69;20231;-76
2022/08/09 08:59:08;;;;;;;3.60;3.28;;;;;;;28.04;37.15;93380.63;2071198;69;20277;-74
2022/08/09 09:01:35;;;;;;;4.47;3.38;;;;;;;29.10;37.02;93384.00;2074426;69;20148;-73
2022/08/09 09:04:03;;;;;;;4.45;2.95;;;;;;;29.22;38.83;93382.53;2074643;69;20255;-76
2022/08/09 09:06:34;;;;;;;4.90;3.50;;;;;;;29.33;38.72;93376.03;2074445;69;20634;-76
2022/08/09 09:09:02;;;;;;;3.90;3.30;;;;;;;29.96;37.52;93380.41;2074543;69;20150;-76
2022/08/09 09:11:28;;;;;;;3.67;3.28;;;;;;;29.72;36.53;93373.16;2074439;69;20167;-76
2022/08/09 09:13:56;;;;;;;3.60;3.08;;;;;;;29.83;36.98;93376.81;2074476;69;20143;-74
2022/08/09 09:16:23;;;;;;;5.18;3.60;;;;;;;29.83;35.95;93380.44;2074393;69;20151;-76
2022/08/09 09:18:53;;;;;;;3.40;3.10;;;;;;;30.56;35.51;93370.84;2074496;69;20168;-75
2022/08/09 09:21:19;;;;;;;4.07;3.28;;;;;;;29.87;34.66;93380.44;2074484;69;20240;-75
2022/08/09 09:23:46;;;;;;;6.10;2.90;;;;;;;30.74;36.01;93378.75;2074557;69;20247;-75
2022/08/09 09:26:12;;;;;;;5.32;3.35;;;;;;;29.36;36.17;93370.97;2074397;69;20144;-75
2022/08/09 09:28:44;;;;;;;5.00;3.33;;;;;;;29.54;36.65;93367.34;2074480;69;20275;-75
2022/08/09 09:31:17;;;;;;;4.35;3.83;;;;;;;29.78;34.95;93367.38;2074339;69;20247;-74
2022/08/09 09:33:45;;;;;;;4.85;3.25;;;;;;;28.78;36.73;93363.59;2074460;69;20136;-76
2022/08/09 09:36:12;;;;;;;7.60;3.30;;;;;;;30.02;36.12;93366.59;2074381;69;20151;-75
2022/08/09 09:38:43;;;;;;;3.58;3.15;;;;;;;29.13;34.69;93359.34;2074360;69;20182;-75
2022/08/09 09:41:11;;;;;;;5.35;3.50;;;;;;;28.69;36.61;93353.44;2074404;69;20140;-75
2022/08/09 09:43:37;;;;;;;6.25;3.10;;;;;;;30.00;35.81;93348.47;2074454;69;20638;-76
2022/08/09 09:46:02;;;;;;;4.97;3.25;;;;;;;29.05;34.58;93356.44;2073792;69;20171;-76
2022/08/09 09:48:29;;;;;;;5.47;3.00;;;;;;;29.46;35.97;93350.69;2070443;69;20274;-75
2022/08/09 09:50:58;;;;;;;7.95;2.92;;;;;;;30.42;34.81;93349.81;2072930;69;20141;-76
2022/08/09 09:53:26;;;;;;;6.13;3.20;;;;;;;29.67;36.13;93345.59;2068051;69;20168;-76
2022/08/09 09:55:59;;;;;;;4.70;3.50;;;;;;;29.81;35.42;93342.69;2062811;69;20572;-77
2022/08/09 09:58:43;;;;;;;4.05;3.25;;;;;;;29.97;35.20;93339.03;2071523;69;20144;-75
2022/08/09 10:01:23;;;;;;;4.07;3.05;;;;;;;31.20;34.91;93336.34;2071557;69;20221;-74
2022/08/09 10:03:52;;;;;;;5.85;3.05;;;;;;;30.35;33.62;93328.78;2071391;69;20268;-76
2022/08/09 10:06:18;;;;;;;4.75;3.03;;;;;;;31.37;34.34;93322.44;2071457;69;20533;-76
2022/08/09 10:08:47;;;;;;;4.55;2.70;;;;;;;31.15;32.98;93334.94;2071553;69;20213;-76
2022/08/09 10:11:25;;;;;;;3.47;2.85;;;;;;;31.14;35.15;93325.47;2071545;69;20555;-75
2022/08/09 10:13:52;;;;;;;4.90;2.33;;;;;;;31.20;33.75;93330.53;2071514;69;20238;-78
2022/08/09 10:16:32;;;;;;;4.30;2.80;;;;;;;32.42;32.96;93328.03;2071391;69;20244;-75
2022/08/09 10:19:00;;;;;;;4.30;2.75;;;;;;;32.24;30.36;93323.81;2071188;69;20144;-76
2022/08/09 10:21:27;;;;;;;3.03;2.40;;;;;;;32.17;31.75;93321.75;2071117;69;20148;-76
2022/08/09 10:23:54;;;;;;;3.58;2.28;;;;;;;31.76;31.35;93322.84;2070506;69;20152;-75
2022/08/09 10:26:21;;;;;;;2.50;2.30;;;;;;;32.58;31.29;93311.06;2070656;69;20546;-75
2022/08/09 10:28:49;;;;;;;5.72;2.60;;;;;;;33.43;31.27;93320.13;2070871;69;20498;-75
2022/08/09 10:31:16;;;;;;;4.25;2.65;;;;;;;33.53;29.98;93313.41;2071266;69;20143;-75
2022/08/09 10:33:42;;;;;;;5.30;2.08;;;;;;;33.69;28.47;93307.31;2071230;69;20235;-77
2022/08/09 10:36:10;;;;;;;2.63;2.33;;;;;;;33.79;29.04;93306.41;2071207;69;20211;-75
2022/08/09 10:38:38;;;;;;;4.13;2.20;;;;;;;34.67;27.87;93307.69;2070927;69;20463;-75
2022/08/09 10:41:04;;;;;;;2.65;1.80;;;;;;;34.80;26.75;93308.88;2064937;69;20136;-76
2022/08/09 10:43:30;;;;;;;2.90;1.90;;;;;;;35.49;26.55;93307.34;2071009;69;20193;-75
2022/08/09 10:46:12;;;;;;;3.97;1.80;;;;;;;34.43;25.69;93300.13;2070660;69;20205;-74
2022/08/09 10:48:54;;;;;;;2.05;1.85;;;;;;;35.84;26.22;93301.38;2071101;69;20144;-74
2022/08/09 10:51:38;;;;;;;;;;;;;;;34.40;26.91;93293.59;2071292;69;20152;-75
2022/08/09 10:54:06;;;;;;;5.95;1.95;;;;;;;35.53;24.92;93297.75;2070786;69;20056;-75
2022/08/09 10:56:33;;;;;;;1.83;1.60;;;;;;;36.84;24.23;93295.75;2070283;69;20677;-76
2022/08/09 10:59:19;;;;;;;2.08;1.65;;;;;;;37.99;22.70;93289.97;2070907;69;20259;-75
2022/08/09 11:01:44;;;;;;;3.47;2.00;;;;;;;37.67;22.98;93288.09;2070779;69;20139;-75
2022/08/09 11:04:22;;;;;;;3.67;1.70;;;;;;;39.33;21.81;93287.31;2070669;69;20256;-75
2022/08/09 11:07:09;;;;;;;2.10;1.60;;;;;;;41.29;20.16;93293.66;2070946;69;20155;-75
2022/08/09 11:09:38;;;;;;;1.80;1.50;;;;;;;43.37;17.85;93294.22;2071111;69;20144;-74
2022/08/09 11:12:15;;;;;;;5.22;2.00;;;;;;;44.96;17.11;93305.06;2070630;69;20495;-75
2022/08/09 11:15:00;;;;;;;3.08;1.73;;;;;;;45.74;15.66;93298.66;2070272;69;20180;-76
2022/08/09 11:17:25;;;;;;;2.78;1.70;;;;;;;45.43;15.96;93296.22;2069014;69;20159;-75
2022/08/09 11:19:56;;;;;;;1.85;1.40;;;;;;;48.40;14.35;93292.81;2070204;69;20179;-74
2022/08/09 11:22:40;;;;;;;1.70;1.50;;;;;;;43.59;16.66;93287.06;2070364;69;20147;-74
2022/08/09 11:25:09;;;;;;;2.03;1.63;;;;;;;48.17;14.83;93293.06;2070501;69;20599;-74
2022/08/09 11:27:38;;;;;;;2.22;1.38;;;;;;;49.53;14.07;93288.50;2070664;69;20452;-74
2022/08/09 11:30:06;;;;;;;2.50;1.52;;;;;;;49.71;13.35;93291.59;2070533;69;20145;-74
2022/08/09 11:32:38;;;;;;;5.70;1.50;;;;;;;50.31;12.36;93297.16;2070016;69;20176;-74
2022/08/09 11:35:42;;;;;;;2.50;1.40;;;;;;;50.32;13.17;93278.31;2070773;69;20202;-74
2022/08/09 11:38:29;;;;;;;1.40;1.30;;;;;;;52.99;10.97;93280.94;2064683;69;20584;-73